X  Fermer Données météorologiques d'aviation de Metar        LGTS Thessaloniki Macedonia International
Température
31°C Température
22°C Point de rosée
59% Humidité



Vent
13 KM/H
8 MPH
4 M/S
7 KTS



290°
ONO
Conditions actuelles

Mostly Sunny Assez ensoleillé
Pression 1015 (hPa) - 29.97 (inHg)
Visibilité 6 (mile) - 10 (km)
Aéroport
Code de l'aéroport LGTS

Emplacement: Thessaloniki Macedonia International
Distance: 85 (km)

Metar:
METAR LGTS 200950Z 29007KT CAVOK 31/22 Q1015 NOSIG

Temps: 20-06-2024 12:50 EEST